createdAt,value
2022-09-24T00:01:33.109Z,8.70
2022-09-24T00:04:06.746Z,8.70
2022-09-24T00:06:41.310Z,8.70
2022-09-24T00:09:09.164Z,8.80
2022-09-24T00:11:36.458Z,8.80
2022-09-24T00:14:03.723Z,8.80
2022-09-24T00:16:34.112Z,8.80
2022-09-24T00:19:03.213Z,8.70
2022-09-24T00:21:35.530Z,8.60
2022-09-24T00:24:08.951Z,8.60
2022-09-24T00:26:52.017Z,8.60
2022-09-24T00:29:22.051Z,8.60
2022-09-24T00:31:50.662Z,8.50
2022-09-24T00:34:18.439Z,8.40
2022-09-24T00:36:48.721Z,8.40
2022-09-24T00:39:16.717Z,8.40
2022-09-24T00:41:47.323Z,8.30
2022-09-24T00:44:45.520Z,8.20
2022-09-24T00:47:41.562Z,8.20
2022-09-24T00:50:18.103Z,8.10
2022-09-24T00:53:08.406Z,8.10
2022-09-24T00:55:37.608Z,8.00
2022-09-24T00:58:07.389Z,7.90
2022-09-24T01:00:37.916Z,7.90
2022-09-24T01:03:16.595Z,7.80
2022-09-24T01:05:43.848Z,7.80
2022-09-24T01:08:13.976Z,7.70
2022-09-24T01:11:15.169Z,7.70
2022-09-24T01:14:11.396Z,7.70
2022-09-24T01:16:44.939Z,7.60
2022-09-24T01:19:41.091Z,7.60
2022-09-24T01:22:11.088Z,7.60
2022-09-24T01:24:56.944Z,7.60
2022-09-24T01:27:45.366Z,7.50
2022-09-24T01:30:15.309Z,7.50
2022-09-24T01:32:49.692Z,7.50
2022-09-24T01:35:24.489Z,7.40
2022-09-24T01:37:58.719Z,7.40
2022-09-24T01:40:28.374Z,7.30
2022-09-24T01:42:58.363Z,7.30
2022-09-24T01:45:30.177Z,7.30
2022-09-24T01:48:00.772Z,7.30
2022-09-24T01:50:32.913Z,7.20
2022-09-24T01:53:12.355Z,7.30
2022-09-24T01:55:45.551Z,7.30
2022-09-24T01:58:19.412Z,7.30
2022-09-24T02:00:49.915Z,7.30
2022-09-24T02:03:23.602Z,7.40
2022-09-24T02:06:04.588Z,7.40
2022-09-24T02:08:44.244Z,7.40
2022-09-24T02:11:22.436Z,7.50
2022-09-24T02:13:59.624Z,7.50
2022-09-24T02:16:36.374Z,7.60
2022-09-24T02:19:07.931Z,7.60
2022-09-24T02:21:37.374Z,7.70
2022-09-24T02:24:24.958Z,7.70
2022-09-24T02:26:52.141Z,7.70
2022-09-24T02:29:19.153Z,7.70
2022-09-24T02:31:49.740Z,7.80
2022-09-24T02:34:22.025Z,7.80
2022-09-24T02:36:51.956Z,7.80
2022-09-24T02:39:19.713Z,7.90
2022-09-24T02:41:48.476Z,7.90
2022-09-24T02:44:17.054Z,8.00
2022-09-24T02:46:45.221Z,8.00
2022-09-24T02:49:13.223Z,8.00
2022-09-24T02:51:42.707Z,8.10
2022-09-24T02:54:11.141Z,8.20
2022-09-24T02:56:38.939Z,8.20
2022-09-24T02:59:07.770Z,8.30
2022-09-24T03:01:35.709Z,8.30
2022-09-24T03:04:04.032Z,8.30
2022-09-24T03:06:31.176Z,8.40
2022-09-24T03:08:58.524Z,8.40
2022-09-24T03:11:25.779Z,8.50
2022-09-24T03:13:52.912Z,8.50
2022-09-24T03:16:20.243Z,8.50
2022-09-24T03:18:48.262Z,8.50
2022-09-24T03:21:18.046Z,8.50
2022-09-24T03:23:45.350Z,8.50
2022-09-24T03:26:12.909Z,8.60
2022-09-24T03:28:40.051Z,8.60
2022-09-24T03:31:08.938Z,8.60
2022-09-24T03:33:38.930Z,8.60
2022-09-24T03:36:07.463Z,8.60
2022-09-24T03:38:35.860Z,8.60
2022-09-24T03:41:03.723Z,8.60
2022-09-24T03:43:31.476Z,8.50
2022-09-24T03:45:58.898Z,8.50
2022-09-24T03:48:27.294Z,8.50
2022-09-24T03:50:54.533Z,8.40
2022-09-24T03:53:21.924Z,8.30
2022-09-24T03:55:56.993Z,8.30
2022-09-24T03:58:25.738Z,8.30
2022-09-24T04:00:54.266Z,8.30
2022-09-24T04:03:25.537Z,8.20
2022-09-24T04:05:52.748Z,8.20
2022-09-24T04:08:23.748Z,8.20
2022-09-24T04:10:51.847Z,8.20
2022-09-24T04:13:19.427Z,8.20
2022-09-24T04:15:46.651Z,8.20
2022-09-24T04:18:13.702Z,8.20
2022-09-24T04:20:41.725Z,8.10
2022-09-24T04:23:10.630Z,8.10
2022-09-24T04:25:37.811Z,8.00
2022-09-24T04:28:07.362Z,7.90
2022-09-24T04:30:35.606Z,7.80
2022-09-24T04:33:03.262Z,7.80
2022-09-24T04:35:32.252Z,7.80
2022-09-24T04:38:00.442Z,7.70
2022-09-24T04:40:27.949Z,7.70
2022-09-24T04:42:55.030Z,7.60
2022-09-24T04:45:25.089Z,7.60
2022-09-24T04:47:57.308Z,7.60
2022-09-24T04:50:26.482Z,7.70
2022-09-24T04:52:54.901Z,7.70
2022-09-24T04:55:23.261Z,7.70
2022-09-24T04:57:51.247Z,7.70
2022-09-24T05:00:20.705Z,7.60
2022-09-24T05:02:48.583Z,7.70
2022-09-24T05:05:15.748Z,7.60
2022-09-24T05:07:44.800Z,7.70
2022-09-24T05:10:11.901Z,7.60
2022-09-24T05:12:41.195Z,7.70
2022-09-24T05:15:08.685Z,7.70
2022-09-24T05:17:41.698Z,7.70
2022-09-24T05:20:11.457Z,7.70
2022-09-24T05:22:46.006Z,7.80
2022-09-24T05:25:15.001Z,7.80
2022-09-24T05:27:46.339Z,7.80
2022-09-24T05:30:14.719Z,7.80
2022-09-24T05:32:42.436Z,7.70
2022-09-24T05:35:10.314Z,7.80
2022-09-24T05:37:38.404Z,7.70
2022-09-24T05:40:24.869Z,7.70
2022-09-24T05:42:52.403Z,7.70
2022-09-24T05:45:19.471Z,7.60
2022-09-24T05:47:47.022Z,7.60
2022-09-24T05:50:14.594Z,7.60
2022-09-24T05:52:41.732Z,7.70
2022-09-24T05:55:10.241Z,7.70
2022-09-24T05:57:37.964Z,7.70
2022-09-24T06:00:07.049Z,7.80
2022-09-24T06:02:40.115Z,7.90
2022-09-24T06:05:07.634Z,7.90
2022-09-24T06:07:34.684Z,8.00
2022-09-24T06:10:01.784Z,8.00
2022-09-24T06:12:28.898Z,8.10
2022-09-24T06:14:55.996Z,8.10
2022-09-24T06:17:23.726Z,8.20
2022-09-24T06:19:50.874Z,8.30
2022-09-24T06:22:17.934Z,8.30
2022-09-24T06:24:46.108Z,8.40
2022-09-24T06:27:13.283Z,8.40
2022-09-24T06:29:40.417Z,8.50
2022-09-24T06:32:08.299Z,8.60
2022-09-24T06:34:35.579Z,8.70
2022-09-24T06:37:02.691Z,8.80
2022-09-24T06:39:29.847Z,8.90
2022-09-24T06:41:58.079Z,9.00
2022-09-24T06:44:30.944Z,9.10
2022-09-24T06:46:58.261Z,9.10
2022-09-24T06:49:27.953Z,9.10
2022-09-24T06:51:58.750Z,9.00
2022-09-24T06:54:25.966Z,9.00
2022-09-24T06:56:53.432Z,9.00
2022-09-24T06:59:20.770Z,9.10
2022-09-24T07:01:47.919Z,9.10
2022-09-24T07:04:15.052Z,9.20
2022-09-24T07:07:00.592Z,9.30
2022-09-24T07:09:27.740Z,9.30
2022-09-24T07:11:57.050Z,9.30
2022-09-24T07:14:24.139Z,9.30
2022-09-24T07:16:52.255Z,9.40
2022-09-24T07:19:19.544Z,9.50
2022-09-24T07:21:46.593Z,9.60
2022-09-24T07:24:13.712Z,9.80
2022-09-24T07:26:40.781Z,9.90
2022-09-24T07:29:07.958Z,10.10
2022-09-24T07:31:36.744Z,10.30
2022-09-24T07:34:06.516Z,10.40
2022-09-24T07:36:33.826Z,10.40
2022-09-24T07:39:02.249Z,10.50
2022-09-24T07:41:39.937Z,10.60
2022-09-24T07:44:09.904Z,10.50
2022-09-24T07:46:37.110Z,10.50
2022-09-24T07:49:04.508Z,10.50
2022-09-24T07:51:31.568Z,10.50
2022-09-24T07:53:59.082Z,10.60
2022-09-24T07:56:26.138Z,10.70
2022-09-24T07:58:54.061Z,10.70
2022-09-24T08:01:21.395Z,10.70
2022-09-24T08:03:48.696Z,10.60
2022-09-24T08:06:15.895Z,10.50
2022-09-24T08:08:43.688Z,10.40
2022-09-24T08:11:17.123Z,10.50
2022-09-24T08:13:45.259Z,10.60
2022-09-24T08:16:13.078Z,10.80
2022-09-24T08:18:43.568Z,11.00
2022-09-24T08:21:13.343Z,11.20
2022-09-24T08:23:40.702Z,11.40
2022-09-24T08:26:08.171Z,11.70
2022-09-24T08:28:35.772Z,11.90
2022-09-24T08:31:07.765Z,12.00
2022-09-24T08:33:36.582Z,12.10
2022-09-24T08:36:05.628Z,12.10
2022-09-24T08:38:32.705Z,12.00
2022-09-24T08:41:02.750Z,11.90
2022-09-24T08:43:42.122Z,11.90
2022-09-24T08:46:42.165Z,11.80
2022-09-24T08:49:16.420Z,11.60
2022-09-24T08:52:02.885Z,11.40
2022-09-24T08:54:33.727Z,11.50
2022-09-24T08:57:06.943Z,11.70
2022-09-24T08:59:37.793Z,11.80
2022-09-24T09:02:23.327Z,11.80
2022-09-24T09:04:58.013Z,12.00
2022-09-24T09:08:03.434Z,12.20
2022-09-24T09:10:39.769Z,12.30
2022-09-24T09:13:14.086Z,12.50
2022-09-24T09:15:46.328Z,12.60
2022-09-24T09:18:44.455Z,12.50
2022-09-24T09:21:26.819Z,12.50
2022-09-24T09:23:57.256Z,12.70
2022-09-24T09:26:25.937Z,12.90
2022-09-24T09:28:58.151Z,13.00
2022-09-24T09:31:44.589Z,13.00
2022-09-24T09:34:14.635Z,13.10
2022-09-24T09:37:09.617Z,13.20
2022-09-24T09:39:39.379Z,13.20
2022-09-24T09:42:12.741Z,13.30
2022-09-24T09:44:41.954Z,13.30
2022-09-24T09:47:20.896Z,13.60
2022-09-24T09:49:52.291Z,13.80
2022-09-24T09:52:24.105Z,13.90
2022-09-24T09:54:51.293Z,14.00
2022-09-24T09:57:24.657Z,14.10
2022-09-24T09:59:54.373Z,13.90
2022-09-24T10:02:34.021Z,13.90
2022-09-24T10:05:06.371Z,13.80
2022-09-24T10:07:45.308Z,13.90
2022-09-24T10:10:20.087Z,14.20
2022-09-24T10:12:47.700Z,14.10
2022-09-24T10:15:14.909Z,13.60
2022-09-24T10:17:44.145Z,13.30
2022-09-24T10:20:29.920Z,13.10
2022-09-24T10:22:58.549Z,13.40
2022-09-24T10:25:30.905Z,13.60
2022-09-24T10:28:19.931Z,13.60
2022-09-24T10:31:24.273Z,13.90
2022-09-24T10:33:56.003Z,14.00
2022-09-24T10:36:28.451Z,14.00
2022-09-24T10:39:15.776Z,14.00
2022-09-24T10:41:51.518Z,14.00
2022-09-24T10:44:20.678Z,14.10
2022-09-24T10:46:53.483Z,14.20
2022-09-24T10:49:20.588Z,14.30
2022-09-24T10:52:02.808Z,14.50
2022-09-24T10:54:58.283Z,14.70
2022-09-24T10:57:34.483Z,14.90
2022-09-24T11:00:24.577Z,14.90
2022-09-24T11:03:16.539Z,14.90
2022-09-24T11:05:58.706Z,15.00
2022-09-24T11:08:44.331Z,15.00
2022-09-24T11:11:17.282Z,15.00
2022-09-24T11:14:08.249Z,15.10
2022-09-24T11:16:45.719Z,15.10
2022-09-24T11:19:48.590Z,15.00
2022-09-24T11:22:36.272Z,15.30
2022-09-24T11:25:28.024Z,15.30
2022-09-24T11:28:17.081Z,15.00
2022-09-24T11:31:09.006Z,14.60
2022-09-24T11:33:57.681Z,14.40
2022-09-24T11:36:49.901Z,14.60
2022-09-24T11:39:44.711Z,14.90
2022-09-24T11:42:29.169Z,15.40
2022-09-24T11:45:25.192Z,15.40
2022-09-24T11:47:52.923Z,15.30
2022-09-24T11:50:47.427Z,15.00
2022-09-24T11:53:39.982Z,14.70
2022-09-24T11:56:39.188Z,14.40
2022-09-24T11:59:25.434Z,14.30
2022-09-24T12:02:18.125Z,14.30
2022-09-24T12:05:07.762Z,14.30
2022-09-24T12:07:48.077Z,14.50
2022-09-24T12:10:37.365Z,14.70
2022-09-24T12:13:13.942Z,14.90
2022-09-24T12:15:49.336Z,15.10
2022-09-24T12:18:23.715Z,15.20
2022-09-24T12:21:01.801Z,15.40
2022-09-24T12:23:34.086Z,15.40
2022-09-24T12:26:05.553Z,15.60
2022-09-24T12:29:28.142Z,15.90
2022-09-24T12:32:24.381Z,16.30
2022-09-24T12:35:15.862Z,16.60
2022-09-24T12:37:45.628Z,16.80
2022-09-24T12:40:12.789Z,16.80
2022-09-24T12:42:50.671Z,17.10
2022-09-24T12:45:22.517Z,17.00
2022-09-24T12:47:56.996Z,16.90
2022-09-24T12:50:31.192Z,16.50
2022-09-24T12:52:58.679Z,16.20
2022-09-24T12:55:31.794Z,16.20
2022-09-24T12:58:05.932Z,16.20
2022-09-24T13:00:36.034Z,16.20
2022-09-24T13:03:03.831Z,16.30
2022-09-24T13:05:47.594Z,16.50
2022-09-24T13:08:26.025Z,16.50
2022-09-24T13:11:06.092Z,16.40
2022-09-24T13:13:40.989Z,16.60
2022-09-24T13:16:19.287Z,16.70
2022-09-24T13:18:59.229Z,16.70
2022-09-24T13:21:30.848Z,16.90
2022-09-24T13:23:58.492Z,16.80
2022-09-24T13:26:25.459Z,16.70
2022-09-24T13:28:59.013Z,16.60
2022-09-24T13:31:38.237Z,16.40
2022-09-24T13:34:18.906Z,15.90
2022-09-24T13:37:15.847Z,15.50
2022-09-24T13:39:59.204Z,15.30
2022-09-24T13:42:37.923Z,15.30
2022-09-24T13:45:10.050Z,15.20
2022-09-24T13:47:46.488Z,15.30
2022-09-24T13:50:29.094Z,15.20
2022-09-24T13:53:16.341Z,15.20
2022-09-24T13:55:49.560Z,15.30
2022-09-24T13:58:35.989Z,15.30
2022-09-24T14:01:13.090Z,15.10
2022-09-24T14:03:41.497Z,14.90
2022-09-24T14:06:14.542Z,14.60
2022-09-24T14:08:46.931Z,14.50
2022-09-24T14:11:20.102Z,14.40
2022-09-24T14:13:47.693Z,14.40
2022-09-24T14:16:20.660Z,14.40
2022-09-24T14:18:48.882Z,14.30
2022-09-24T14:21:31.930Z,14.20
2022-09-24T14:24:04.013Z,14.10
2022-09-24T14:26:38.281Z,13.90
2022-09-24T14:29:20.164Z,13.80
2022-09-24T14:31:54.767Z,13.70
2022-09-24T14:34:27.225Z,13.80
2022-09-24T14:36:57.444Z,13.90
2022-09-24T14:39:29.374Z,13.90
2022-09-24T14:41:59.329Z,13.90
2022-09-24T14:44:29.850Z,13.90
2022-09-24T14:46:59.201Z,13.90
2022-09-24T14:49:43.180Z,13.90
2022-09-24T14:52:40.038Z,13.90
2022-09-24T14:55:22.154Z,13.90
2022-09-24T14:57:55.255Z,14.00
2022-09-24T15:00:32.463Z,13.90
2022-09-24T15:03:01.664Z,13.80
2022-09-24T15:05:30.598Z,13.70
2022-09-24T15:08:17.047Z,13.60
2022-09-24T15:10:53.057Z,13.40
2022-09-24T15:13:24.848Z,13.40
2022-09-24T15:16:22.279Z,13.30
2022-09-24T15:19:09.856Z,13.40
2022-09-24T15:21:38.203Z,13.30
2022-09-24T15:24:05.411Z,13.30
2022-09-24T15:26:35.111Z,13.20
2022-09-24T15:29:03.220Z,13.20
2022-09-24T15:31:30.458Z,13.20
2022-09-24T15:33:57.592Z,13.20
2022-09-24T15:36:25.146Z,13.20
2022-09-24T15:38:53.096Z,13.10
2022-09-24T15:41:20.534Z,13.00
2022-09-24T15:43:48.098Z,13.00
2022-09-24T15:46:15.156Z,13.00
2022-09-24T15:48:42.392Z,13.00
2022-09-24T15:51:15.121Z,12.90
2022-09-24T15:53:42.940Z,12.80
2022-09-24T15:56:09.929Z,12.70
2022-09-24T15:58:37.315Z,12.60
2022-09-24T16:01:04.938Z,12.60
2022-09-24T16:03:32.710Z,12.50
2022-09-24T16:06:00.636Z,12.50
2022-09-24T16:08:27.822Z,12.50
2022-09-24T16:15:21.792Z,12.40
2022-09-24T16:17:51.923Z,12.40
2022-09-24T16:24:43.953Z,12.40
2022-09-24T16:27:11.017Z,12.40
2022-09-24T16:29:38.140Z,12.40
2022-09-24T16:32:05.239Z,12.50
2022-09-24T16:34:33.091Z,12.50
2022-09-24T16:37:00.238Z,12.60
2022-09-24T16:39:27.278Z,12.60
2022-09-24T16:46:19.519Z,12.50
2022-09-24T16:48:49.900Z,12.50
2022-09-24T16:51:17.504Z,12.40
2022-09-24T16:53:48.972Z,12.40
2022-09-24T16:56:17.806Z,12.40
2022-09-24T16:58:46.942Z,12.30
2022-09-24T17:01:16.660Z,12.30
2022-09-24T17:08:08.886Z,12.20
2022-09-24T17:10:35.954Z,12.10
2022-09-24T17:13:03.433Z,12.00
2022-09-24T17:15:30.779Z,12.00
2022-09-24T17:17:59.698Z,11.90
2022-09-24T17:20:26.760Z,11.80
2022-09-24T17:22:54.083Z,11.80
2022-09-24T17:25:21.129Z,11.70
2022-09-24T17:27:48.200Z,11.70
2022-09-24T17:30:16.151Z,11.60
2022-09-24T17:32:43.267Z,11.50
2022-09-24T17:35:10.485Z,11.50
2022-09-24T17:37:37.570Z,11.40
2022-09-24T17:40:05.190Z,11.40
2022-09-24T17:42:34.107Z,11.30
2022-09-24T17:45:01.256Z,11.30
2022-09-24T17:47:48.291Z,11.30
2022-09-24T17:50:16.165Z,11.20
2022-09-24T17:52:43.373Z,11.20
2022-09-24T17:55:10.570Z,11.10
2022-09-24T17:57:37.578Z,11.10
2022-09-24T18:00:06.261Z,11.00
2022-09-24T18:02:38.768Z,11.00
2022-09-24T18:05:07.480Z,10.90
2022-09-24T18:07:34.727Z,10.90
2022-09-24T18:10:01.774Z,10.80
2022-09-24T18:12:28.768Z,10.80
2022-09-24T18:14:55.902Z,10.80
2022-09-24T18:17:22.906Z,10.80
2022-09-24T18:19:49.930Z,10.80
2022-09-24T18:22:16.990Z,10.80
2022-09-24T18:24:44.692Z,10.80
2022-09-24T18:27:15.354Z,10.80
2022-09-24T18:29:44.195Z,10.80
2022-09-24T18:32:11.619Z,10.80
2022-09-24T18:34:38.677Z,10.80
2022-09-24T18:37:06.114Z,10.80
2022-09-24T18:39:33.270Z,10.80
2022-09-24T18:42:00.327Z,10.80
2022-09-24T18:44:27.437Z,10.80
2022-09-24T18:46:54.677Z,10.80
2022-09-24T18:49:21.768Z,10.80
2022-09-24T18:51:49.134Z,10.80
2022-09-24T18:54:18.380Z,10.80
2022-09-24T18:56:46.212Z,10.80
2022-09-24T18:59:18.749Z,10.80
2022-09-24T19:01:47.868Z,10.80
2022-09-24T19:04:15.392Z,10.80
2022-09-24T19:06:45.174Z,10.80
2022-09-24T19:09:13.899Z,10.80
2022-09-24T19:11:42.086Z,10.70
2022-09-24T19:14:12.190Z,10.70
2022-09-24T19:16:39.947Z,10.60
2022-09-24T19:19:07.518Z,10.60
2022-09-24T19:21:34.623Z,10.50
2022-09-24T19:24:01.917Z,10.50
2022-09-24T19:26:31.419Z,10.50
2022-09-24T19:28:59.326Z,10.50
2022-09-24T19:31:37.630Z,10.50
2022-09-24T19:34:06.380Z,10.40
2022-09-24T19:36:42.905Z,10.40
2022-09-24T19:39:16.380Z,10.40
2022-09-24T19:41:43.977Z,10.30
2022-09-24T19:44:11.695Z,10.30
2022-09-24T19:46:39.481Z,10.20
2022-09-24T19:49:07.063Z,10.20
2022-09-24T19:51:34.979Z,10.20
2022-09-24T19:54:04.880Z,10.10
2022-09-24T19:56:32.188Z,10.10
2022-09-24T19:59:01.300Z,10.10
2022-09-24T20:01:31.002Z,10.10
2022-09-24T20:04:00.422Z,10.10
2022-09-24T20:06:31.444Z,10.10
2022-09-24T20:08:59.439Z,10.10
2022-09-24T20:11:27.163Z,10.00
2022-09-24T20:13:56.291Z,10.00
2022-09-24T20:16:26.327Z,10.00
2022-09-24T20:18:57.920Z,10.00
2022-09-24T20:21:28.339Z,10.00
2022-09-24T20:23:57.673Z,10.00
2022-09-24T20:26:43.992Z,10.00
2022-09-24T20:29:12.399Z,10.00
2022-09-24T20:31:52.011Z,10.10
2022-09-24T20:34:21.367Z,10.10
2022-09-24T20:36:48.553Z,10.10
2022-09-24T20:39:15.619Z,10.20
2022-09-24T20:41:42.937Z,10.20
2022-09-24T20:44:10.501Z,10.20
2022-09-24T20:46:37.607Z,10.30
2022-09-24T20:49:05.126Z,10.40
2022-09-24T20:51:35.198Z,10.30
2022-09-24T20:54:02.757Z,10.30
2022-09-24T20:56:32.469Z,10.30
2022-09-24T20:59:01.020Z,10.20
2022-09-24T21:01:28.938Z,10.20
2022-09-24T21:03:58.408Z,10.10
2022-09-24T21:06:25.734Z,10.10
2022-09-24T21:08:53.783Z,10.00
2022-09-24T21:11:25.363Z,10.00
2022-09-24T21:13:55.010Z,9.90
2022-09-24T21:16:25.264Z,9.90
2022-09-24T21:18:54.479Z,9.90
2022-09-24T21:21:30.298Z,9.80
2022-09-24T21:23:59.743Z,9.80
2022-09-24T21:26:29.477Z,9.80
2022-09-24T21:29:00.615Z,9.80
2022-09-24T21:31:32.695Z,9.90
2022-09-24T21:34:00.231Z,9.80
2022-09-24T21:36:32.221Z,9.90
2022-09-24T21:39:05.323Z,9.90
2022-09-24T21:41:35.880Z,9.90
2022-09-24T21:44:04.218Z,9.90
2022-09-24T21:46:32.075Z,9.90
2022-09-24T21:49:00.253Z,9.80
2022-09-24T21:51:30.239Z,9.90
2022-09-24T21:54:03.012Z,9.80
2022-09-24T21:56:35.223Z,9.80
2022-09-24T21:59:22.855Z,9.80
2022-09-24T22:01:50.275Z,9.80
2022-09-24T22:04:17.457Z,9.80
2022-09-24T22:06:44.811Z,9.80
2022-09-24T22:09:12.007Z,9.80
2022-09-24T22:11:39.477Z,9.70
2022-09-24T22:14:07.163Z,9.70
2022-09-24T22:16:36.039Z,9.70
2022-09-24T22:19:05.669Z,9.70
2022-09-24T22:21:33.652Z,9.70
2022-09-24T22:24:01.343Z,9.70
2022-09-24T22:26:29.731Z,9.70
2022-09-24T22:28:57.421Z,9.70
2022-09-24T22:31:25.071Z,9.60
2022-09-24T22:34:11.427Z,9.60
2022-09-24T22:36:38.779Z,9.60
2022-09-24T22:39:07.212Z,9.60
2022-09-24T22:41:38.240Z,9.60
2022-09-24T22:44:06.061Z,9.60
2022-09-24T22:46:36.215Z,9.60
2022-09-24T22:49:04.772Z,9.60
2022-09-24T22:51:32.133Z,9.60
2022-09-24T22:54:00.319Z,9.60
2022-09-24T22:56:28.212Z,9.50
2022-09-24T22:58:58.055Z,9.50
2022-09-24T23:01:27.970Z,9.60
2022-09-24T23:03:56.353Z,9.60
2022-09-24T23:06:24.128Z,9.60
2022-09-24T23:08:53.013Z,9.60
2022-09-24T23:11:31.415Z,9.60
2022-09-24T23:14:01.083Z,9.50
2022-09-24T23:16:34.476Z,9.50
2022-09-24T23:19:04.709Z,9.50
2022-09-24T23:21:33.257Z,9.50
2022-09-24T23:24:20.057Z,9.50
2022-09-24T23:26:47.340Z,9.50
2022-09-24T23:29:14.753Z,9.50
2022-09-24T23:31:42.290Z,9.50
2022-09-24T23:34:11.902Z,9.50
2022-09-24T23:36:39.199Z,9.50
2022-09-24T23:39:06.285Z,9.50
2022-09-24T23:41:33.657Z,9.50
2022-09-24T23:44:01.150Z,9.60
2022-09-24T23:46:28.727Z,9.60
2022-09-24T23:48:56.530Z,9.60
2022-09-24T23:51:23.821Z,9.60
2022-09-24T23:53:51.373Z,9.50
2022-09-24T23:56:19.250Z,9.60
2022-09-24T23:58:46.443Z,9.50
